createdAt,value
2023-04-09T00:00:05.419Z,952.1
2023-04-09T00:01:07.251Z,952.2
2023-04-09T00:02:09.274Z,952.2
2023-04-09T00:03:11.632Z,952.2
2023-04-09T00:04:13.739Z,952.2
2023-04-09T00:05:15.791Z,952.2
2023-04-09T00:06:17.734Z,952.2
2023-04-09T00:07:19.469Z,952.2
2023-04-09T00:08:21.303Z,952.2
2023-04-09T00:09:23.169Z,952.2
2023-04-09T00:10:25.117Z,952.2
2023-04-09T00:11:26.969Z,952.2
2023-04-09T00:12:28.828Z,952.2
2023-04-09T00:13:40.347Z,952.2
2023-04-09T00:14:42.152Z,952.2
2023-04-09T00:15:44.096Z,952.2
2023-04-09T00:16:46.316Z,952.2
2023-04-09T00:17:48.427Z,952.2
2023-04-09T00:18:51.294Z,952.2
2023-04-09T00:19:53.555Z,952.2
2023-04-09T00:20:55.431Z,952.2
2023-04-09T00:21:57.255Z,952.2
2023-04-09T00:22:59.104Z,952.2
2023-04-09T00:24:00.945Z,952.2
2023-04-09T00:25:02.909Z,952.3
2023-04-09T00:26:04.860Z,952.3
2023-04-09T00:27:06.609Z,952.3
2023-04-09T00:28:08.449Z,952.2
2023-04-09T00:29:10.305Z,952.2
2023-04-09T00:30:12.156Z,952.2
2023-04-09T00:31:14.147Z,952.3
2023-04-09T00:32:16.154Z,952.3
2023-04-09T00:33:17.906Z,952.3
2023-04-09T00:34:19.752Z,952.3
2023-04-09T00:35:21.600Z,952.3
2023-04-09T00:36:27.390Z,952.3
2023-04-09T00:37:29.499Z,952.2
2023-04-09T00:38:31.359Z,952.3
2023-04-09T00:39:33.181Z,952.2
2023-04-09T00:40:35.049Z,952.3
2023-04-09T00:41:36.906Z,952.3
2023-04-09T00:42:38.761Z,952.3
2023-04-09T00:43:40.609Z,952.3
2023-04-09T00:44:42.565Z,952.3
2023-04-09T00:45:44.617Z,952.2
2023-04-09T00:46:46.470Z,952.2
2023-04-09T00:47:48.470Z,952.2
2023-04-09T00:48:51.793Z,952.2
2023-04-09T00:49:54.058Z,952.1
2023-04-09T00:50:55.911Z,952.2
2023-04-09T00:51:57.782Z,952.2
2023-04-09T00:52:59.716Z,952.2
2023-04-09T00:54:01.671Z,952.2
2023-04-09T00:55:03.512Z,952.2
2023-04-09T00:56:05.350Z,952.2
2023-04-09T00:57:07.218Z,952.3
2023-04-09T00:58:08.964Z,952.2
2023-04-09T00:59:10.931Z,952.2
2023-04-09T01:00:12.864Z,952.2
2023-04-09T01:01:14.980Z,952.3
2023-04-09T01:02:17.244Z,952.2
2023-04-09T01:03:19.587Z,952.2
2023-04-09T01:04:21.592Z,952.2
2023-04-09T01:05:23.371Z,952.2
2023-04-09T01:06:25.193Z,952.2
2023-04-09T01:07:27.281Z,952.2
2023-04-09T01:08:29.095Z,952.2
2023-04-09T01:09:30.887Z,952.2
2023-04-09T01:10:32.703Z,952.3
2023-04-09T01:11:34.540Z,952.3
2023-04-09T01:12:36.495Z,952.3
2023-04-09T01:13:38.453Z,952.3
2023-04-09T01:14:40.502Z,952.4
2023-04-09T01:15:42.360Z,952.3
2023-04-09T01:16:44.326Z,952.3
2023-04-09T01:17:46.704Z,952.3
2023-04-09T01:18:48.627Z,952.3
2023-04-09T01:19:50.587Z,952.3
2023-04-09T01:20:52.421Z,952.3
2023-04-09T01:21:54.279Z,952.3
2023-04-09T01:22:56.158Z,952.3
2023-04-09T01:23:58.029Z,952.3
2023-04-09T01:24:59.922Z,952.3
2023-04-09T01:26:01.787Z,952.3
2023-04-09T01:27:03.632Z,952.3
2023-04-09T01:28:05.470Z,952.3
2023-04-09T01:29:07.323Z,952.3
2023-04-09T01:30:09.274Z,952.3
2023-04-09T01:31:11.259Z,952.3
2023-04-09T01:32:13.282Z,952.3
2023-04-09T01:33:15.245Z,952.3
2023-04-09T01:34:17.084Z,952.3
2023-04-09T01:35:19.046Z,952.3
2023-04-09T01:36:20.999Z,952.3
2023-04-09T01:37:22.848Z,952.3
2023-04-09T01:38:24.714Z,952.4
2023-04-09T01:39:26.538Z,952.3
2023-04-09T01:40:28.379Z,952.4
2023-04-09T01:41:30.240Z,952.4
2023-04-09T01:42:32.090Z,952.3
2023-04-09T01:43:33.922Z,952.4
2023-04-09T01:44:35.908Z,952.3
2023-04-09T01:45:37.649Z,952.3
2023-04-09T01:46:39.502Z,952.3
2023-04-09T01:47:41.474Z,952.3
2023-04-09T01:48:43.300Z,952.4
2023-04-09T01:49:45.144Z,952.4
2023-04-09T01:50:47.000Z,952.4
2023-04-09T01:51:48.935Z,952.4
2023-04-09T01:52:50.805Z,952.4
2023-04-09T01:53:52.684Z,952.3
2023-04-09T01:54:54.507Z,952.4
2023-04-09T01:55:56.243Z,952.4
2023-04-09T01:56:58.213Z,952.4
2023-04-09T01:58:00.057Z,952.3
2023-04-09T01:59:01.896Z,952.3
2023-04-09T02:00:03.769Z,952.3
2023-04-09T02:01:05.855Z,952.3
2023-04-09T02:02:08.091Z,952.3
2023-04-09T02:03:10.515Z,952.3
2023-04-09T02:04:12.617Z,952.3
2023-04-09T02:05:14.432Z,952.3
2023-04-09T02:06:16.302Z,952.3
2023-04-09T02:07:18.130Z,952.3
2023-04-09T02:08:19.992Z,952.3
2023-04-09T02:09:21.857Z,952.3
2023-04-09T02:10:23.678Z,952.3
2023-04-09T02:11:25.540Z,952.3
2023-04-09T02:12:27.392Z,952.3
2023-04-09T02:13:29.232Z,952.4
2023-04-09T02:14:31.079Z,952.4
2023-04-09T02:15:32.938Z,952.4
2023-04-09T02:16:34.796Z,952.4
2023-04-09T02:17:36.882Z,952.3
2023-04-09T02:18:38.802Z,952.3
2023-04-09T02:19:40.767Z,952.3
2023-04-09T02:20:42.615Z,952.3
2023-04-09T02:21:44.444Z,952.3
2023-04-09T02:22:46.291Z,952.4
2023-04-09T02:23:48.146Z,952.3
2023-04-09T02:24:50.041Z,952.3
2023-04-09T02:25:51.960Z,952.3
2023-04-09T02:26:53.893Z,952.3
2023-04-09T02:27:55.745Z,952.3
2023-04-09T02:28:57.502Z,952.3
2023-04-09T02:29:59.341Z,952.3
2023-04-09T02:31:01.329Z,952.3
2023-04-09T02:32:03.250Z,952.3
2023-04-09T02:33:05.099Z,952.3
2023-04-09T02:34:06.949Z,952.3
2023-04-09T02:35:08.798Z,952.3
2023-04-09T02:36:10.670Z,952.3
2023-04-09T02:37:12.510Z,952.3
2023-04-09T02:38:14.377Z,952.3
2023-04-09T02:39:16.210Z,952.3
2023-04-09T02:40:18.083Z,952.3
2023-04-09T02:41:20.009Z,952.3
2023-04-09T02:42:21.953Z,952.3
2023-04-09T02:43:23.813Z,952.3
2023-04-09T02:44:25.656Z,952.3
2023-04-09T02:45:27.507Z,952.3
2023-04-09T02:46:29.469Z,952.3
2023-04-09T02:47:31.550Z,952.3
2023-04-09T02:48:33.362Z,952.3
2023-04-09T02:49:35.223Z,952.3
2023-04-09T02:50:36.988Z,952.3
2023-04-09T02:51:38.818Z,952.2
2023-04-09T02:52:40.762Z,952.2
2023-04-09T02:53:42.626Z,952.2
2023-04-09T02:54:44.362Z,952.2
2023-04-09T02:55:46.240Z,952.2
2023-04-09T02:56:48.116Z,952.2
2023-04-09T02:57:50.027Z,952.2
2023-04-09T02:58:52.746Z,952.2
2023-04-09T02:59:55.045Z,952.2
2023-04-09T03:00:56.906Z,952.2
2023-04-09T03:01:59.285Z,952.2
2023-04-09T03:03:01.960Z,952.1
2023-04-09T03:04:04.584Z,952.2
2023-04-09T03:05:06.655Z,952.2
2023-04-09T03:06:08.605Z,952.2
2023-04-09T03:07:10.450Z,952.2
2023-04-09T03:08:12.203Z,952.2
2023-04-09T03:09:13.949Z,952.2
2023-04-09T03:10:15.921Z,952.2
2023-04-09T03:11:17.694Z,952.2
2023-04-09T03:12:19.600Z,952.2
2023-04-09T03:13:21.456Z,952.2
2023-04-09T03:14:23.301Z,952.2
2023-04-09T03:15:25.049Z,952.2
2023-04-09T03:16:27.148Z,952.2
2023-04-09T03:17:29.064Z,952.3
2023-04-09T03:18:30.853Z,952.3
2023-04-09T03:19:32.647Z,952.2
2023-04-09T03:20:34.512Z,952.2
2023-04-09T03:21:36.358Z,952.3
2023-04-09T03:22:38.224Z,952.2
2023-04-09T03:23:40.165Z,952.3
2023-04-09T03:24:42.220Z,952.2
2023-04-09T03:25:44.005Z,952.2
2023-04-09T03:26:45.946Z,952.2
2023-04-09T03:27:47.770Z,952.2
2023-04-09T03:28:49.655Z,952.2
2023-04-09T03:29:51.990Z,952.2
2023-04-09T03:30:53.862Z,952.2
2023-04-09T03:31:55.893Z,952.2
2023-04-09T03:32:57.883Z,952.2
2023-04-09T03:33:59.737Z,952.2
2023-04-09T03:35:01.538Z,952.2
2023-04-09T03:36:03.602Z,952.2
2023-04-09T03:37:05.653Z,952.2
2023-04-09T03:38:07.500Z,952.2
2023-04-09T03:39:09.354Z,952.2
2023-04-09T03:40:11.132Z,952.2
2023-04-09T03:41:12.950Z,952.2
2023-04-09T03:42:14.899Z,952.2
2023-04-09T03:43:16.845Z,952.2
2023-04-09T03:44:18.693Z,952.2
2023-04-09T03:45:20.471Z,952.3
2023-04-09T03:46:22.361Z,952.3
2023-04-09T03:47:24.483Z,952.3
2023-04-09T03:48:26.502Z,952.3
2023-04-09T03:49:28.370Z,952.3
2023-04-09T03:50:30.205Z,952.3
2023-04-09T03:51:32.102Z,952.3
2023-04-09T03:52:34.008Z,952.3
2023-04-09T03:53:35.857Z,952.3
2023-04-09T03:54:37.717Z,952.3
2023-04-09T03:55:39.646Z,952.3
2023-04-09T03:56:41.724Z,952.4
2023-04-09T03:57:43.585Z,952.4
2023-04-09T03:58:45.511Z,952.3
2023-04-09T03:59:47.267Z,952.3
2023-04-09T04:00:49.112Z,952.4
2023-04-09T04:01:51.332Z,952.3
2023-04-09T04:02:54.207Z,952.4
2023-04-09T04:03:56.967Z,952.4
2023-04-09T04:04:58.901Z,952.4
2023-04-09T04:06:00.730Z,952.4
2023-04-09T04:07:02.579Z,952.4
2023-04-09T04:08:04.430Z,952.4
2023-04-09T04:09:06.392Z,952.4
2023-04-09T04:10:08.164Z,952.4
2023-04-09T04:11:10.068Z,952.4
2023-04-09T04:12:12.027Z,952.4
2023-04-09T04:13:14.035Z,952.4
2023-04-09T04:14:16.043Z,952.4
2023-04-09T04:15:17.796Z,952.4
2023-04-09T04:16:19.863Z,952.4
2023-04-09T04:17:21.752Z,952.4
2023-04-09T04:18:23.643Z,952.4
2023-04-09T04:19:25.419Z,952.4
2023-04-09T04:20:27.233Z,952.4
2023-04-09T04:21:29.199Z,952.4
2023-04-09T04:22:31.036Z,952.4
2023-04-09T04:23:32.999Z,952.4
2023-04-09T04:24:34.839Z,952.4
2023-04-09T04:25:36.688Z,952.4
2023-04-09T04:26:38.547Z,952.4
2023-04-09T04:27:40.499Z,952.4
2023-04-09T04:28:42.374Z,952.5
2023-04-09T04:29:44.190Z,952.5
2023-04-09T04:30:45.942Z,952.5
2023-04-09T04:31:48.115Z,952.5
2023-04-09T04:32:50.068Z,952.5
2023-04-09T04:33:51.794Z,952.5
2023-04-09T04:34:53.652Z,952.5
2023-04-09T04:35:55.517Z,952.5
2023-04-09T04:36:57.449Z,952.5
2023-04-09T04:37:59.292Z,952.5
2023-04-09T04:39:01.147Z,952.5
2023-04-09T04:40:02.998Z,952.5
2023-04-09T04:41:04.868Z,952.5
2023-04-09T04:42:06.701Z,952.5
2023-04-09T04:43:08.653Z,952.5
2023-04-09T04:44:10.526Z,952.5
2023-04-09T04:45:12.456Z,952.4
2023-04-09T04:46:14.581Z,952.5
2023-04-09T04:47:16.565Z,952.5
2023-04-09T04:48:18.525Z,952.5
2023-04-09T04:49:20.274Z,952.5
2023-04-09T04:50:22.128Z,952.5
2023-04-09T04:51:23.946Z,952.5
2023-04-09T04:52:25.850Z,952.5
2023-04-09T04:53:27.625Z,952.5
2023-04-09T04:54:29.537Z,952.5
2023-04-09T04:55:31.364Z,952.5
2023-04-09T04:56:33.365Z,952.5
2023-04-09T04:57:35.162Z,952.6
2023-04-09T04:58:37.019Z,952.6
2023-04-09T04:59:38.811Z,952.5
2023-04-09T05:00:40.830Z,952.5
2023-04-09T05:01:43.309Z,952.5
2023-04-09T05:02:45.899Z,952.6
2023-04-09T05:03:48.599Z,952.6
2023-04-09T05:04:50.989Z,952.6
2023-04-09T05:05:52.944Z,952.6
2023-04-09T05:06:54.796Z,952.6
2023-04-09T05:07:56.603Z,952.6
2023-04-09T05:08:58.490Z,952.6
2023-04-09T05:10:00.439Z,952.6
2023-04-09T05:11:02.392Z,952.6
2023-04-09T05:12:04.247Z,952.6
2023-04-09T05:13:06.060Z,952.5
2023-04-09T05:14:07.939Z,952.6
2023-04-09T05:15:09.928Z,952.6
2023-04-09T05:16:11.990Z,952.6
2023-04-09T05:17:13.982Z,952.6
2023-04-09T05:18:16.084Z,952.6
2023-04-09T05:19:18.007Z,952.6
2023-04-09T05:20:19.863Z,952.6
2023-04-09T05:21:21.708Z,952.6
2023-04-09T05:22:23.582Z,952.6
2023-04-09T05:23:25.410Z,952.6
2023-04-09T05:24:27.360Z,952.6
2023-04-09T05:25:29.226Z,952.6
2023-04-09T05:26:30.982Z,952.6
2023-04-09T05:27:32.807Z,952.6
2023-04-09T05:28:34.544Z,952.6
2023-04-09T05:29:36.518Z,952.6
2023-04-09T05:30:38.306Z,952.6
2023-04-09T05:31:40.325Z,952.7
2023-04-09T05:32:42.351Z,952.6
2023-04-09T05:33:44.113Z,952.6
2023-04-09T05:34:46.167Z,952.6
2023-04-09T05:35:48.124Z,952.6
2023-04-09T05:36:49.971Z,952.6
2023-04-09T05:37:51.719Z,952.6
2023-04-09T05:38:54.330Z,952.6
2023-04-09T05:39:56.975Z,952.6
2023-04-09T05:40:58.915Z,952.6
2023-04-09T05:42:00.875Z,952.6
2023-04-09T05:43:02.813Z,952.6
2023-04-09T05:44:04.547Z,952.6
2023-04-09T05:45:06.522Z,952.6
2023-04-09T05:46:08.527Z,952.6
2023-04-09T05:47:10.624Z,952.6
2023-04-09T05:48:12.472Z,952.7
2023-04-09T05:49:14.325Z,952.7
2023-04-09T05:50:16.185Z,952.6
2023-04-09T05:51:18.026Z,952.6
2023-04-09T05:52:19.902Z,952.6
2023-04-09T05:53:21.726Z,952.6
2023-04-09T05:54:23.583Z,952.6
2023-04-09T05:55:25.428Z,952.6
2023-04-09T05:56:27.220Z,952.6
2023-04-09T05:57:29.026Z,952.6
2023-04-09T05:58:30.770Z,952.6
2023-04-09T05:59:32.619Z,952.6
2023-04-09T06:00:34.470Z,952.7
2023-04-09T06:01:36.475Z,952.7
2023-04-09T06:02:38.988Z,952.6
2023-04-09T06:03:41.310Z,952.7
2023-04-09T06:04:43.531Z,952.7
2023-04-09T06:05:45.458Z,952.6
2023-04-09T06:06:47.412Z,952.6
2023-04-09T06:07:49.265Z,952.6
2023-04-09T06:08:51.120Z,952.6
2023-04-09T06:09:52.961Z,952.6
2023-04-09T06:10:54.812Z,952.6
2023-04-09T06:11:56.771Z,952.7
2023-04-09T06:12:58.726Z,952.7
2023-04-09T06:14:00.576Z,952.7
2023-04-09T06:15:02.521Z,952.7
2023-04-09T06:16:04.504Z,952.6
2023-04-09T06:17:06.659Z,952.6
2023-04-09T06:18:09.084Z,952.6
2023-04-09T06:19:11.130Z,952.6
2023-04-09T06:20:12.806Z,952.6
2023-04-09T06:21:14.640Z,952.7
2023-04-09T06:22:16.392Z,952.7
2023-04-09T06:23:18.352Z,952.7
2023-04-09T06:24:20.089Z,952.6
2023-04-09T06:25:21.859Z,952.7
2023-04-09T06:26:23.601Z,952.7
2023-04-09T06:27:25.438Z,952.6
2023-04-09T06:28:27.304Z,952.7
2023-04-09T06:29:29.242Z,952.6
2023-04-09T06:30:31.105Z,952.7
2023-04-09T06:31:32.971Z,952.6
2023-04-09T06:32:55.652Z,952.7
2023-04-09T06:33:57.736Z,952.7
2023-04-09T06:34:59.690Z,952.7
2023-04-09T06:36:01.760Z,952.7
2023-04-09T06:37:03.593Z,952.7
2023-04-09T06:38:05.357Z,952.7
2023-04-09T06:39:07.108Z,952.7
2023-04-09T06:40:09.159Z,952.6
2023-04-09T06:41:11.000Z,952.7
2023-04-09T06:42:12.772Z,952.7
2023-04-09T06:43:14.591Z,952.7
2023-04-09T06:44:16.554Z,952.7
2023-04-09T06:45:18.388Z,952.7
2023-04-09T06:46:20.766Z,952.7
2023-04-09T06:47:22.602Z,952.7
2023-04-09T06:48:24.596Z,952.8
2023-04-09T06:49:26.358Z,952.7
2023-04-09T06:50:28.049Z,952.8
2023-04-09T06:51:29.907Z,952.7
2023-04-09T06:52:31.749Z,952.7
2023-04-09T06:53:33.603Z,952.8
2023-04-09T06:54:35.554Z,952.8
2023-04-09T06:55:37.410Z,952.8
2023-04-09T06:56:39.191Z,952.8
2023-04-09T06:57:40.912Z,952.8
2023-04-09T06:58:42.652Z,952.8
2023-04-09T06:59:44.502Z,952.8
2023-04-09T07:00:46.258Z,952.8
2023-04-09T07:01:48.464Z,952.9
2023-04-09T07:02:51.489Z,952.9
2023-04-09T07:03:54.842Z,952.8
2023-04-09T07:04:57.235Z,952.9
2023-04-09T07:05:59.076Z,952.9
2023-04-09T07:07:01.069Z,952.9
2023-04-09T07:08:02.883Z,952.9
2023-04-09T07:09:04.670Z,952.9
2023-04-09T07:10:06.653Z,952.8
2023-04-09T07:11:08.644Z,952.9
2023-04-09T07:12:10.597Z,952.9
2023-04-09T07:13:12.445Z,953
2023-04-09T07:14:14.387Z,952.9
2023-04-09T07:15:16.554Z,952.9
2023-04-09T07:16:18.773Z,952.9
2023-04-09T07:17:20.763Z,953
2023-04-09T07:18:22.510Z,952.9
2023-04-09T07:19:24.309Z,952.9
2023-04-09T07:20:26.442Z,952.9
2023-04-09T07:21:28.474Z,952.9
2023-04-09T07:22:30.419Z,952.9
2023-04-09T07:23:32.380Z,953
2023-04-09T07:24:34.222Z,952.9
2023-04-09T07:25:36.078Z,953
2023-04-09T07:26:37.930Z,953
2023-04-09T07:27:39.777Z,953
2023-04-09T07:28:41.663Z,953
2023-04-09T07:29:43.480Z,953
2023-04-09T07:30:45.319Z,953
2023-04-09T07:31:47.287Z,953
2023-04-09T07:32:49.175Z,953
2023-04-09T07:33:52.278Z,953
2023-04-09T07:34:54.810Z,953
2023-04-09T07:35:56.867Z,953
2023-04-09T07:36:58.680Z,953
2023-04-09T07:38:00.832Z,953
2023-04-09T07:39:02.989Z,953
2023-04-09T07:40:05.159Z,953
2023-04-09T07:41:06.996Z,953
2023-04-09T07:42:08.841Z,953
2023-04-09T07:43:10.702Z,953.1
2023-04-09T07:44:12.649Z,953.1
2023-04-09T07:45:14.496Z,953.1
2023-04-09T07:46:16.474Z,953.1
2023-04-09T07:47:18.321Z,953
2023-04-09T07:48:20.152Z,953.1
2023-04-09T07:49:22.214Z,953
2023-04-09T07:50:24.188Z,953
2023-04-09T07:51:26.017Z,953.1
2023-04-09T07:52:28.110Z,953.1
2023-04-09T07:53:29.914Z,953.1
2023-04-09T07:54:31.826Z,953.1
2023-04-09T07:55:33.723Z,953.1
2023-04-09T07:56:35.462Z,953.1
2023-04-09T07:57:37.429Z,953.1
2023-04-09T07:58:39.276Z,953.2
2023-04-09T07:59:41.164Z,953.1
2023-04-09T08:00:43.069Z,953.2
2023-04-09T08:01:45.159Z,953.2
2023-04-09T08:02:47.839Z,953.2
2023-04-09T08:03:50.674Z,953.2
2023-04-09T08:04:53.168Z,953.2
2023-04-09T08:05:55.210Z,953.2
2023-04-09T08:06:57.145Z,953.2
2023-04-09T08:07:59.101Z,953.2
2023-04-09T08:09:00.957Z,953.3
2023-04-09T08:10:02.801Z,953.2
2023-04-09T08:11:04.550Z,953.2
2023-04-09T08:12:06.499Z,953.3
2023-04-09T08:13:12.075Z,953.3
2023-04-09T08:14:13.987Z,953.3
2023-04-09T08:15:15.847Z,953.3
2023-04-09T08:16:17.979Z,953.3
2023-04-09T08:17:19.825Z,953.3
2023-04-09T08:18:21.483Z,953.2
2023-04-09T08:19:23.236Z,953.3
2023-04-09T08:20:25.188Z,953.3
2023-04-09T08:21:27.158Z,953.3
2023-04-09T08:22:29.100Z,953.3
2023-04-09T08:23:30.936Z,953.4
2023-04-09T08:24:32.686Z,953.3
2023-04-09T08:25:34.564Z,953.3
2023-04-09T08:26:36.496Z,953.4
2023-04-09T08:27:38.237Z,953.4
2023-04-09T08:28:40.091Z,953.4
2023-04-09T08:29:42.038Z,953.4
2023-04-09T08:30:43.898Z,953.3
2023-04-09T08:31:46.174Z,953.4
2023-04-09T08:32:48.253Z,953.3
2023-04-09T08:33:50.156Z,953.3
2023-04-09T08:34:52.119Z,953.4
2023-04-09T08:35:53.966Z,953.3
2023-04-09T08:36:55.945Z,953.3
2023-04-09T08:37:57.861Z,953.3
2023-04-09T08:38:59.824Z,953.3
2023-04-09T08:40:01.779Z,953.3
2023-04-09T08:41:03.618Z,953.3
2023-04-09T08:42:05.669Z,953.3
2023-04-09T08:43:07.508Z,953.3
2023-04-09T08:44:09.277Z,953.3
2023-04-09T08:45:11.024Z,953.3
2023-04-09T08:46:12.889Z,953.2
2023-04-09T08:47:14.944Z,953.2
2023-04-09T08:48:17.029Z,953.2
2023-04-09T08:49:19.038Z,953.2
2023-04-09T08:50:21.319Z,953.2
2023-04-09T08:51:23.518Z,953.2
2023-04-09T08:52:25.961Z,953.2
2023-04-09T08:53:27.770Z,953.2
2023-04-09T08:54:29.726Z,953.2
2023-04-09T08:55:31.676Z,953.2
2023-04-09T08:56:33.523Z,953.2
2023-04-09T08:57:35.380Z,953.2
2023-04-09T08:58:37.235Z,953.2
2023-04-09T08:59:39.175Z,953.2
2023-04-09T09:00:40.964Z,953.1
2023-04-09T09:01:43.213Z,953.2
2023-04-09T09:02:45.606Z,953.1
2023-04-09T09:03:47.900Z,953.1
2023-04-09T09:04:50.074Z,953.1
2023-04-09T09:05:51.919Z,953.1
2023-04-09T09:06:57.042Z,953.1
2023-04-09T09:07:58.931Z,953
2023-04-09T09:09:00.779Z,953
2023-04-09T09:10:02.692Z,953.1
2023-04-09T09:11:04.434Z,953.1
2023-04-09T09:12:06.384Z,953
2023-04-09T09:13:08.235Z,953
2023-04-09T09:14:10.196Z,953
2023-04-09T09:15:12.140Z,953
2023-04-09T09:16:14.101Z,953
2023-04-09T09:17:16.258Z,953
2023-04-09T09:18:18.107Z,953
2023-04-09T09:19:19.951Z,953
2023-04-09T09:20:21.816Z,953
2023-04-09T09:21:23.768Z,953
2023-04-09T09:22:25.822Z,953
2023-04-09T09:23:27.689Z,953
2023-04-09T09:24:29.507Z,952.9
2023-04-09T09:25:31.390Z,952.9
2023-04-09T09:26:33.249Z,952.9
2023-04-09T09:27:35.171Z,952.9
2023-04-09T09:28:37.015Z,952.9
2023-04-09T09:29:38.975Z,952.9
2023-04-09T09:30:41.020Z,952.9
2023-04-09T09:31:42.836Z,952.9
2023-04-09T09:32:44.859Z,952.8
2023-04-09T09:33:46.776Z,952.8
2023-04-09T09:34:48.624Z,952.9
2023-04-09T09:35:50.827Z,952.8
2023-04-09T09:36:53.151Z,952.8
2023-04-09T09:37:55.096Z,952.8
2023-04-09T09:38:56.978Z,952.8
2023-04-09T09:39:58.900Z,952.8
2023-04-09T09:41:00.857Z,952.8
2023-04-09T09:42:02.731Z,952.8
2023-04-09T09:43:04.556Z,952.8
2023-04-09T09:44:06.603Z,952.7
2023-04-09T09:45:08.352Z,952.8
2023-04-09T09:46:10.459Z,952.7
2023-04-09T09:47:12.371Z,952.7
2023-04-09T09:48:14.236Z,952.7
2023-04-09T09:49:16.144Z,952.7
2023-04-09T09:50:18.250Z,952.7
2023-04-09T09:51:20.080Z,952.7
2023-04-09T09:52:22.075Z,952.7
2023-04-09T09:53:23.984Z,952.7
2023-04-09T09:54:25.880Z,952.7
2023-04-09T09:55:28.096Z,952.6
2023-04-09T09:56:29.846Z,952.6
2023-04-09T09:57:31.789Z,952.6
2023-04-09T09:58:33.642Z,952.6
2023-04-09T09:59:35.414Z,952.6
2023-04-09T10:00:37.244Z,952.6
2023-04-09T10:01:39.441Z,952.6
2023-04-09T10:02:41.556Z,952.6
2023-04-09T10:03:43.601Z,952.6
2023-04-09T10:04:45.727Z,952.6
2023-04-09T10:05:47.814Z,952.6
2023-04-09T10:06:53.509Z,952.5
2023-04-09T10:07:55.513Z,952.5
2023-04-09T10:08:57.293Z,952.5
2023-04-09T10:09:59.170Z,952.5
2023-04-09T10:11:01.062Z,952.5
2023-04-09T10:12:02.933Z,952.5
2023-04-09T10:13:04.768Z,952.4
2023-04-09T10:14:06.682Z,952.5
2023-04-09T10:15:08.558Z,952.4
2023-04-09T10:16:10.559Z,952.4
2023-04-09T10:17:12.478Z,952.4
2023-04-09T10:18:14.324Z,952.4
2023-04-09T10:19:16.175Z,952.4
2023-04-09T10:20:18.124Z,952.3
2023-04-09T10:21:19.972Z,952.4
2023-04-09T10:22:21.822Z,952.3
2023-04-09T10:23:23.663Z,952.3
2023-04-09T10:24:25.423Z,952.3
2023-04-09T10:25:27.304Z,952.3
2023-04-09T10:26:29.125Z,952.3
2023-04-09T10:27:31.090Z,952.3
2023-04-09T10:28:33.023Z,952.4
2023-04-09T10:29:34.984Z,952.4
2023-04-09T10:30:36.924Z,952.4
2023-04-09T10:31:38.962Z,952.3
2023-04-09T10:32:41.156Z,952.3
2023-04-09T10:33:43.000Z,952.4
2023-04-09T10:34:44.790Z,952.3
2023-04-09T10:35:46.626Z,952.3
2023-04-09T10:36:48.646Z,952.3
2023-04-09T10:37:50.600Z,952.3
2023-04-09T10:38:53.240Z,952.2
2023-04-09T10:39:55.425Z,952.2
2023-04-09T10:40:57.305Z,952.2
2023-04-09T10:41:59.334Z,952.2
2023-04-09T10:43:01.348Z,952.2
2023-04-09T10:44:03.230Z,952.2
2023-04-09T10:45:05.084Z,952.2
2023-04-09T10:46:06.978Z,952.1
2023-04-09T10:47:08.810Z,952.1
2023-04-09T10:48:10.730Z,952.1
2023-04-09T10:49:12.686Z,952.1
2023-04-09T10:50:14.574Z,952.1
2023-04-09T10:51:16.494Z,952.1
2023-04-09T10:52:18.479Z,952
2023-04-09T10:53:20.616Z,952
2023-04-09T10:54:22.536Z,952
2023-04-09T10:55:24.417Z,952
2023-04-09T10:56:26.244Z,952
2023-04-09T10:57:28.210Z,952
2023-04-09T10:58:30.065Z,951.9
2023-04-09T10:59:31.905Z,952
2023-04-09T11:00:33.672Z,952
2023-04-09T11:01:35.759Z,951.9
2023-04-09T11:02:38.680Z,951.9
2023-04-09T11:03:41.374Z,952
2023-04-09T11:04:43.602Z,951.9
2023-04-09T11:05:45.472Z,951.9
2023-04-09T11:06:47.415Z,951.9
2023-04-09T11:07:49.201Z,951.9
2023-04-09T11:08:51.848Z,951.9
2023-04-09T11:09:53.885Z,951.9
2023-04-09T11:10:55.720Z,951.9
2023-04-09T11:11:57.621Z,951.9
2023-04-09T11:12:59.440Z,951.8
2023-04-09T11:14:01.391Z,951.8
2023-04-09T11:15:03.337Z,951.8
2023-04-09T11:16:05.353Z,951.8
2023-04-09T11:17:07.349Z,951.8
2023-04-09T11:18:09.196Z,951.8
2023-04-09T11:19:11.144Z,951.8
2023-04-09T11:20:13.004Z,951.7
2023-04-09T11:21:14.848Z,951.8
2023-04-09T11:22:16.698Z,951.8
2023-04-09T11:23:18.549Z,951.8
2023-04-09T11:24:20.403Z,951.7
2023-04-09T11:25:22.266Z,951.8
2023-04-09T11:26:24.100Z,951.8
2023-04-09T11:27:25.943Z,951.8
2023-04-09T11:28:27.902Z,951.8
2023-04-09T11:29:29.746Z,951.8
2023-04-09T11:30:31.606Z,951.7
2023-04-09T11:31:33.631Z,951.7
2023-04-09T11:32:35.728Z,951.7
2023-04-09T11:33:37.677Z,951.7
2023-04-09T11:34:39.514Z,951.6
2023-04-09T11:35:41.475Z,951.6
2023-04-09T11:36:43.510Z,951.6
2023-04-09T11:37:45.410Z,951.6
2023-04-09T11:38:47.214Z,951.6
2023-04-09T11:39:49.068Z,951.6
2023-04-09T11:40:50.916Z,951.6
2023-04-09T11:41:52.809Z,951.6
2023-04-09T11:42:54.651Z,951.6
2023-04-09T11:43:56.465Z,951.6
2023-04-09T11:44:58.319Z,951.6
2023-04-09T11:46:00.177Z,951.6
2023-04-09T11:47:02.158Z,951.6
2023-04-09T11:48:04.435Z,951.6
2023-04-09T11:49:06.302Z,951.6
2023-04-09T11:50:08.287Z,951.6
2023-04-09T11:51:10.035Z,951.6
2023-04-09T11:52:11.893Z,951.6
2023-04-09T11:53:13.740Z,951.6
2023-04-09T11:54:15.458Z,951.6
2023-04-09T11:55:17.342Z,951.6
2023-04-09T11:56:19.164Z,951.5
2023-04-09T11:57:21.034Z,951.5
2023-04-09T11:58:23.004Z,951.5
2023-04-09T11:59:24.831Z,951.5
2023-04-09T12:00:26.688Z,951.4
2023-04-09T12:01:28.512Z,951.5
2023-04-09T12:02:30.900Z,951.4
2023-04-09T12:03:34.481Z,951.5
2023-04-09T12:04:37.114Z,951.5
2023-04-09T12:05:48.553Z,951.4
2023-04-09T12:06:52.949Z,951.4
2023-04-09T12:07:57.167Z,951.5
2023-04-09T12:08:59.000Z,951.5
2023-04-09T12:10:00.860Z,951.5
2023-04-09T12:11:02.803Z,951.5
2023-04-09T12:12:04.729Z,951.4
2023-04-09T12:13:06.612Z,951.5
2023-04-09T12:14:08.475Z,951.5
2023-04-09T12:15:10.307Z,951.4
2023-04-09T12:16:12.377Z,951.4
2023-04-09T12:17:14.307Z,951.4
2023-04-09T12:18:16.262Z,951.4
2023-04-09T12:19:18.095Z,951.4
2023-04-09T12:20:19.960Z,951.4
2023-04-09T12:21:21.812Z,951.3
2023-04-09T12:22:23.662Z,951.3
2023-04-09T12:23:25.508Z,951.4
2023-04-09T12:24:27.367Z,951.4
2023-04-09T12:25:29.210Z,951.4
2023-04-09T12:26:31.060Z,951.4
2023-04-09T12:27:34.451Z,951.4
2023-04-09T12:28:36.196Z,951.4
2023-04-09T12:29:38.172Z,951.4
2023-04-09T12:30:39.995Z,951.3
2023-04-09T12:31:42.081Z,951.4
2023-04-09T12:32:44.126Z,951.3
2023-04-09T12:33:46.028Z,951.3
2023-04-09T12:34:48.013Z,951.3
2023-04-09T12:35:50.014Z,951.3
2023-04-09T12:36:51.914Z,951.3
2023-04-09T12:37:53.771Z,951.3
2023-04-09T12:38:55.629Z,951.2
2023-04-09T12:39:57.573Z,951.2
2023-04-09T12:40:59.425Z,951.2
2023-04-09T12:42:01.340Z,951.3
2023-04-09T12:43:03.217Z,951.2
2023-04-09T12:44:05.299Z,951.2
2023-04-09T12:45:07.156Z,951.2
2023-04-09T12:46:09.189Z,951.3
2023-04-09T12:47:11.138Z,951.3
2023-04-09T12:48:12.976Z,951.3
2023-04-09T12:49:14.725Z,951.2
2023-04-09T12:50:16.576Z,951.2
2023-04-09T12:51:18.428Z,951.2
2023-04-09T12:52:20.209Z,951.2
2023-04-09T12:53:21.844Z,951.2
2023-04-09T12:54:23.776Z,951.2
2023-04-09T12:55:25.633Z,951.3
2023-04-09T12:56:30.139Z,951.3
2023-04-09T12:57:32.097Z,951.3
2023-04-09T12:58:33.946Z,951.2
2023-04-09T12:59:35.799Z,951.2
2023-04-09T13:00:37.532Z,951.2
2023-04-09T13:01:43.754Z,951.2
2023-04-09T13:02:46.181Z,951.2
2023-04-09T13:03:48.884Z,951.1
2023-04-09T13:04:51.092Z,951.1
2023-04-09T13:05:53.015Z,951.2
2023-04-09T13:06:54.905Z,951.2
2023-04-09T13:07:56.846Z,951.1
2023-04-09T13:08:58.717Z,951.1
2023-04-09T13:10:00.548Z,951.1
2023-04-09T13:11:02.496Z,951.1
2023-04-09T13:12:04.335Z,951.1
2023-04-09T13:13:06.201Z,951.1
2023-04-09T13:14:07.936Z,951.1
2023-04-09T13:15:09.804Z,951.1
2023-04-09T13:16:11.781Z,951.1
2023-04-09T13:17:14.061Z,951.1
2023-04-09T13:18:16.054Z,951.1
2023-04-09T13:19:17.842Z,951.1
2023-04-09T13:20:19.754Z,951.1
2023-04-09T13:21:21.611Z,951.1